^^
MeteoGriva-Weather Station Historical Data
Daily Summary for August 7, 2020 Units:  English    Metric   Both
Daily Weekly Monthly Yearly Custom
  High: Low: Average:
Temperature: 41 °F 31.6 °F 36.7 °F
Dew Point: 23.5 °F 9.9 °F 18.5 °F
Humidity: 59.2% 34.2% 48%
Wind Speed: 10.1mph 0mph 3.5mph
Wind Gust: 25.1mph - -
Wind- - WSW
Pressure: 30.3 in 30.1 in -
Precipitation: 0 in    
Historical Graphs
 
 
Tabular Data for August 7, 2020
Time Temperature Dew Point Pressure Wind Wind Speed Wind Gust Humidity Rainfall Rate (Hourly) solar
00:04 34.2 °F 20.5 °F 30.1 in NW 2.4 mph 10.1 mph 57.2% 0 in 0 W/m2
00:09 34.2 °F 20.8 °F 30.1 in NW 2 mph 10.1 mph 58% 0 in 0 W/m2
00:14 34.2 °F 20.8 °F 30.1 in NNW 1.6 mph 10.1 mph 58% 0 in 0 W/m2
00:19 34.2 °F 20.8 °F 30.1 in North 2.3 mph 7.6 mph 58% 0 in 0 W/m2
00:24 34.3 °F 20.7 °F 30.1 in North 3.8 mph 10.1 mph 57.4% 0 in 0 W/m2
00:29 34.3 °F 20.8 °F 30.1 in NNE 0.2 mph 10.1 mph 57.2% 0 in 0 W/m2
00:34 34.3 °F 20.8 °F 30.1 in North 2.9 mph 12.5 mph 57.7% 0 in 0 W/m2
00:39 34 °F 20.7 °F 30.1 in Calm   4.9 mph 57.7% 0 in 0 W/m2
00:44 34 °F 20.3 °F 30.1 in NW 0.2 mph 4.9 mph 57% 0 in 0 W/m2
00:49 34 °F 20.3 °F 30.1 in ENE 0.2 mph 2.5 mph 57% 0 in 0 W/m2
00:54 34 °F 20.5 °F 30.1 in NW 1 mph 7.6 mph 57.2% 0 in 0 W/m2
00:59 34.5 °F 20.3 °F 30.1 in North 4.1 mph 10.1 mph 55.9% 0 in 0 W/m2
01:04 34.9 °F 20.3 °F 30.1 in North 3.4 mph 10.1 mph 55% 0 in 0 W/m2
01:09 34.9 °F 20.3 °F 30.1 in NNW 2.4 mph 10.1 mph 55% 0 in 0 W/m2
01:14 34.9 °F 20.3 °F 30.1 in North 3.1 mph 10.1 mph 55% 0 in 0 W/m2
01:19 35.1 °F 20.5 °F 30.1 in North 3 mph 10.1 mph 55% 0 in 0 W/m2
01:24 35.1 °F 20.1 °F 30.1 in NNW 1.1 mph 7.6 mph 54.1% 0 in 0 W/m2
01:29 34.9 °F 20.3 °F 30.1 in ENE 0.1 mph 2.5 mph 55.1% 0 in 0 W/m2
01:34 34.9 °F 20.7 °F 30.1 in NE 1.6 mph 10.1 mph 56% 0 in 0 W/m2
01:39 34.5 °F 20.3 °F 30.1 in NNE 1.9 mph 7.6 mph 55.6% 0 in 0 W/m2
01:44 34.5 °F 19.9 °F 30.1 in NNW 2.4 mph 10.1 mph 55% 0 in 0 W/m2
01:49 34.5 °F 20.5 °F 30.1 in NNW 0.9 mph 7.6 mph 55.9% 0 in 0 W/m2
01:54 34.3 °F 20.3 °F 30.1 in NNE 0.4 mph 10.1 mph 56% 0 in 0 W/m2
01:59 34.7 °F 20.3 °F 30.1 in North 5.8 mph 20.1 mph 55.4% 0 in 0 W/m2
02:04 35.1 °F 20.1 °F 30.1 in NNW 5.4 mph 12.5 mph 54% 0 in 0 W/m2
02:09 35.1 °F 20.1 °F 30.1 in NNW 3.5 mph 12.5 mph 54% 0 in 0 W/m2
02:14 35.1 °F 19.8 °F 30.1 in NW 3.1 mph 12.5 mph 53.2% 0 in 0 W/m2
02:19 35.2 °F 19.8 °F 30.1 in North 5.3 mph 12.5 mph 53% 0 in 0 W/m2
02:24 35.2 °F 19.8 °F 30.1 in North 3.7 mph 12.5 mph 53% 0 in 0 W/m2
02:29 35.2 °F 19.8 °F 30.1 in North 5.2 mph 20.1 mph 53% 0 in 0 W/m2
02:34 35.2 °F 19.8 °F 30.1 in NNW 5.4 mph 17.4 mph 53% 0 in 0 W/m2
02:39 35.1 °F 20.1 °F 30.1 in NW 4.7 mph 15 mph 54% 0 in 0 W/m2
02:44 34.7 °F 19.8 °F 30.1 in North 7.2 mph 15 mph 54% 0 in 0 W/m2
02:49 34.7 °F 20.1 °F 30.1 in NNW 8.2 mph 20.1 mph 54.8% 0 in 0 W/m2
02:54 34.7 °F 20.1 °F 30.1 in NW 6.8 mph 17.4 mph 55% 0 in 0 W/m2
02:59 34.7 °F 20.1 °F 30.1 in NNW 7.3 mph 22.6 mph 55% 0 in 0 W/m2
03:04 34.5 °F 19.9 °F 30.1 in NNW 9.5 mph 20.1 mph 55% 0 in 0 W/m2
03:09 34.5 °F 19.9 °F 30.1 in NNW 6.7 mph 20.1 mph 55% 0 in 0 W/m2
03:14 34.5 °F 19.9 °F 30.1 in NW 9.9 mph 20.1 mph 55% 0 in 0 W/m2
03:19 34.5 °F 19.9 °F 30.1 in North 8.1 mph 20.1 mph 55% 0 in 0 W/m2
03:24 34.5 °F 19.9 °F 30.1 in NW 8.8 mph 17.4 mph 55% 0 in 0 W/m2
03:29 34.5 °F 19.9 °F 30.1 in NNW 7.4 mph 25.1 mph 55% 0 in 0 W/m2
03:34 34.5 °F 19.9 °F 30.1 in NNW 7 mph 17.4 mph 55% 0 in 0 W/m2
03:39 34.5 °F 19.9 °F 30.1 in North 6.8 mph 17.4 mph 55% 0 in 0 W/m2
03:44 34.5 °F 19.9 °F 30.1 in NNW 8 mph 20.1 mph 55% 0 in 0 W/m2
03:49 34.5 °F 19.9 °F 30.1 in NNW 5.2 mph 12.5 mph 54.9% 0 in 0 W/m2
03:54 34.3 °F 19.6 °F 30.1 in NNW 6.5 mph 22.6 mph 54.4% 0 in 0 W/m2
03:59 34.7 °F 19.8 °F 30.1 in North 9.1 mph 17.4 mph 54% 0 in 0 W/m2
04:04 34.7 °F 19.8 °F 30.1 in NW 4.7 mph 15 mph 54% 0 in 0 W/m2
04:09 34.7 °F 19.6 °F 30.1 in NW 7 mph 20.1 mph 53.4% 0 in 0 W/m2
04:14 34.7 °F 19.4 °F 30.1 in NNW 7 mph 20.1 mph 53% 0 in 0 W/m2
04:19 34.7 °F 19.6 °F 30.1 in NNW 9.4 mph 20.1 mph 53.4% 0 in 0 W/m2
04:24 34.7 °F 19.4 °F 30.1 in North 8.8 mph 20.1 mph 53% 0 in 0 W/m2
04:29 34.9 °F 19.4 °F 30.1 in North 10.1 mph 20.1 mph 53% 0 in 0 W/m2
04:34 34.9 °F 19.4 °F 30.1 in NNW 8.1 mph 20.1 mph 53% 0 in 0 W/m2
04:39 34.9 °F 19.4 °F 30.1 in NNE 6.9 mph 17.4 mph 53% 0 in 0 W/m2
04:44 34.7 °F 19.4 °F 30.1 in NNW 7 mph 17.4 mph 53% 0 in 0 W/m2
04:49 34.7 °F 19.4 °F 30.1 in NW 2.4 mph 12.5 mph 53% 0 in 0 W/m2
04:54 34.7 °F 19.4 °F 30.1 in North 2.9 mph 12.5 mph 53% 0 in 0 W/m2
04:59 34.7 °F 19.4 °F 30.1 in NNW 8.5 mph 20.1 mph 53% 0 in 0 W/m2
05:04 34.7 °F 19.4 °F 30.1 in North 3.8 mph 20.1 mph 53% 0 in 0 W/m2
05:09 34.7 °F 19.2 °F 30.1 in North 4 mph 15 mph 52.8% 0 in 0 W/m2
05:14 34.7 °F 19 °F 30.1 in North 5.2 mph 17.4 mph 52.3% 0 in 0 W/m2
05:19 34.7 °F 18.9 °F 30.1 in NNW 5.2 mph 17.4 mph 52% 0 in 0 W/m2
05:24 34.7 °F 18.9 °F 30.1 in NNW 3.6 mph 12.5 mph 52% 0 in 0 W/m2
05:29 34.5 °F 18.7 °F 30.1 in North 6.2 mph 12.5 mph 52% 0 in 0 W/m2
05:34 34.7 °F 18.9 °F 30.1 in NNW 5.5 mph 15 mph 52% 0 in 0 W/m2
05:39 34.7 °F 18.9 °F 30.1 in NNE 5.2 mph 15 mph 52% 0 in 0 W/m2
05:44 34.5 °F 18.7 °F 30.1 in NNW 1 mph 10.1 mph 52% 0 in 0 W/m2
05:49 34.5 °F 18.7 °F 30.1 in NW 3.1 mph 10.1 mph 52% 0 in 0 W/m2
05:54 34.5 °F 18.7 °F 30.1 in North 1.7 mph 7.6 mph 52% 0 in 0 W/m2
05:59 34.5 °F 18.5 °F 30.1 in NNW 1.1 mph 10.1 mph 51.6% 0 in 0 W/m2
06:04 34.7 °F 18.5 °F 30.1 in NW 0.6 mph 10.1 mph 51% 0 in 0 W/m2
06:09 34.7 °F 18.5 °F 30.1 in NNE 0.8 mph 7.6 mph 51% 0 in 0 W/m2
06:14 34.7 °F 18.5 °F 30.1 in NW 3.6 mph 10.1 mph 50.9% 0 in 0 W/m2
06:19 34.7 °F 18.3 °F 30.1 in North 1.8 mph 10.1 mph 50.5% 0 in 0 W/m2
06:24 34.5 °F 18.5 °F 30.1 in NNW 2.7 mph 10.1 mph 51.2% 0 in 0 W/m2
06:29 34.5 °F 18.7 °F 30.1 in North 0.4 mph 4.9 mph 52.1% 0 in 0 W/m2
06:34 34.3 °F 19.4 °F 30.1 in NW 0.1 mph 2.5 mph 53.6% 0 in 0 W/m2
06:39 34.2 °F 19.2 °F 30.1 in North 2.5 mph 10.1 mph 53.8% 0 in 0 W/m2
06:44 34.2 °F 18.9 °F 30.1 in North 4.2 mph 10.1 mph 53% 0 in 0 W/m2
06:49 34.2 °F 19 °F 30.1 in North 6.3 mph 15 mph 53.3% 0 in 0 W/m2
06:54 34.2 °F 18.9 °F 30.1 in NW 2.1 mph 12.5 mph 53% 0 in 0 W/m2
06:59 34.2 °F 18.9 °F 30.1 in NW 3.2 mph 10.1 mph 53% 0 in 0 W/m2
07:04 34.2 °F 18.9 °F 30.1 in North 1.7 mph 4.9 mph 53% 0 in 0 W/m2
07:09 34.2 °F 18.7 °F 30.1 in NE 0.6 mph 4.9 mph 52.8% 0 in 0 W/m2
07:14 34.2 °F 18.7 °F 30.1 in NNE 0.1 mph 2.5 mph 53.1% 0 in 0 W/m2
07:19 34 °F 19.6 °F 30.1 in Calm   2.5 mph 55.3% 0 in 0 W/m2
07:24 32.5 °F 18.9 °F 30.1 in Calm   2.5 mph 56.8% 0 in 0 W/m2
07:29 32.5 °F 19 °F 30.1 in Calm   2.5 mph 57.2% 0 in 0 W/m2
07:34 32.5 °F 19.4 °F 30.1 in NW 0.2 mph 2.5 mph 58% 0 in 0 W/m2
07:39 32.4 °F 19.4 °F 30.1 in Calm     58.2% 0 in 0 W/m2
07:44 32.2 °F 18.9 °F 30.1 in Calm     57.4% 0 in 0 W/m2
07:49 32.2 °F 18.9 °F 30.2 in Calm     57.3% 0 in 0 W/m2
07:54 32.2 °F 19 °F 30.2 in North 0.7 mph 7.6 mph 58% 0 in 0 W/m2
07:59 32.2 °F 19.2 °F 30.2 in NNE 0.6 mph 7.6 mph 58.4% 0 in 0 W/m2
08:04 31.6 °F 19 °F 30.2 in West 0.1 mph 2.5 mph 59.2% 0 in 3 W/m2
08:09 31.8 °F 19 °F 30.2 in Calm   2.5 mph 59% 0 in 8 W/m2
08:14 31.8 °F 18.9 °F 30.2 in NNW 0.5 mph 7.6 mph 58.2% 0 in 13 W/m2
08:19 32 °F 18.1 °F 30.2 in North 4.6 mph 10.1 mph 56.2% 0 in 19 W/m2
08:24 33.8 °F 19 °F 30.2 in North 6 mph 12.5 mph 54.1% 0 in 23 W/m2
08:29 34.3 °F 19.4 °F 30.2 in NNW 6.7 mph 12.5 mph 54% 0 in 28 W/m2
08:34 34.3 °F 19.2 °F 30.2 in North 5.9 mph 12.5 mph 53.2% 0 in 32 W/m2
08:39 34.5 °F 19 °F 30.2 in North 4.8 mph 12.5 mph 52.5% 0 in 36 W/m2
08:44 35.6 °F 19.6 °F 30.2 in North 5.8 mph 17.4 mph 51.8% 0 in 40 W/m2
08:49 35.8 °F 19.4 °F 30.2 in NNW 3.4 mph 10.1 mph 51% 0 in 43 W/m2
08:54 36 °F 19.6 °F 30.2 in North 4.6 mph 10.1 mph 51% 0 in 47 W/m2
08:59 36.1 °F 19.6 °F 30.2 in NNE 4.5 mph 10.1 mph 50.8% 0 in 50 W/m2
09:04 36.7 °F 19.8 °F 30.2 in North 5.2 mph 15 mph 50% 0 in 53 W/m2
09:09 37 °F 20.1 °F 30.2 in NNW 4.8 mph 15 mph 50% 0 in 55 W/m2
09:14 37.2 °F 19.9 °F 30.2 in North 2.9 mph 10.1 mph 49.3% 0 in 58 W/m2
09:19 37.2 °F 19.8 °F 30.2 in North 5.3 mph 15 mph 49% 0 in 60 W/m2
09:24 37.8 °F 20.3 °F 30.2 in North 3.2 mph 10.1 mph 48.8% 0 in 63 W/m2
09:29 37.9 °F 19.9 °F 30.2 in NNW 4.8 mph 12.5 mph 48% 0 in 64 W/m2
09:34 37.9 °F 19.9 °F 30.2 in North 3.7 mph 12.5 mph 48% 0 in 66 W/m2
09:39 37.9 °F 19.9 °F 30.2 in North 2.9 mph 12.5 mph 48% 0 in 68 W/m2
09:44 37.9 °F 20.1 °F 30.2 in NNE 3.9 mph 12.5 mph 48.2% 0 in 69 W/m2
09:49 38.1 °F 20.1 °F 30.2 in North 5.1 mph 12.5 mph 48.1% 0 in 70 W/m2
09:54 38.1 °F 20.1 °F 30.2 in NNW 7.4 mph 15 mph 48% 0 in 71 W/m2
09:59 38.1 °F 20.1 °F 30.2 in NNW 6.3 mph 15 mph 48% 0 in 72 W/m2
10:04 38.3 °F 20.3 °F 30.2 in North 8 mph 17.4 mph 48% 0 in 72 W/m2
10:09 38.5 °F 20.5 °F 30.2 in NNE 6.4 mph 17.4 mph 48% 0 in 74 W/m2
10:14 38.5 °F 20.5 °F 30.2 in NNE 4.2 mph 12.5 mph 48% 0 in 75 W/m2
10:19 38.7 °F 20.5 °F 30.2 in North 5.7 mph 12.5 mph 47.8% 0 in 75 W/m2
10:24 39.2 °F 20.7 °F 30.2 in North 3.8 mph 12.5 mph 46.9% 0 in 76 W/m2
10:29 39.7 °F 20.7 °F 30.2 in NNE 4.7 mph 10.1 mph 46% 0 in 77 W/m2
10:34 39.7 °F 20.7 °F 30.2 in NNE 6.6 mph 15 mph 46% 0 in 77 W/m2
10:39 39.6 °F 21 °F 30.2 in NNW 5.7 mph 15 mph 47% 0 in 76 W/m2
10:44 39.4 °F 21.2 °F 30.2 in North 7 mph 15 mph 47.8% 0 in 77 W/m2
10:49 39.2 °F 21.2 °F 30.2 in North 6.6 mph 15 mph 48% 0 in 77 W/m2
10:54 39.2 °F 21.2 °F 30.2 in North 5.8 mph 15 mph 48% 0 in 78 W/m2
10:59 39.4 °F 21.2 °F 30.2 in NNE 8.1 mph 15 mph 47.9% 0 in 80 W/m2
11:04 39.4 °F 21.4 °F 30.2 in NNE 7.6 mph 20.1 mph 48% 0 in 81 W/m2
11:09 39.4 °F 21.6 °F 30.2 in North 7.6 mph 15 mph 48.6% 0 in 82 W/m2
11:14 39.4 °F 21.7 °F 30.2 in North 8.2 mph 20.1 mph 49% 0 in 85 W/m2
11:19 39.4 °F 21.9 °F 30.2 in North 7.2 mph 20.1 mph 49.2% 0 in 87 W/m2
11:24 39.6 °F 22.5 °F 30.2 in NNE 7.4 mph 17.4 mph 50% 0 in 90 W/m2
11:29 39.9 °F 22.6 °F 30.2 in NNW 6 mph 12.5 mph 49.6% 0 in 93 W/m2
11:34 39.9 °F 22.8 °F 30.2 in NNE 7.6 mph 15 mph 50% 0 in 95 W/m2
11:39 39.9 °F 23 °F 30.2 in NNW 9.6 mph 17.4 mph 50.7% 0 in 98 W/m2
11:44 40.1 °F 23.2 °F 30.2 in NNW 8.8 mph 20.1 mph 50.5% 0 in 101 W/m2
11:49 40.1 °F 23 °F 30.2 in North 6 mph 15 mph 50% 0 in 91 W/m2
11:54 40.1 °F 22.8 °F 30.2 in NNE 3.4 mph 12.5 mph 49.8% 0 in 78 W/m2
11:59 40.3 °F 22.6 °F 30.2 in North 4 mph 12.5 mph 49% 0 in 78 W/m2
12:04 40.5 °F 23.2 °F 30.2 in NNW 3.7 mph 12.5 mph 49.7% 0 in 77 W/m2
12:09 40.6 °F 23.5 °F 30.2 in NNE 4.2 mph 12.5 mph 50.2% 0 in 79 W/m2
12:14 40.6 °F 23.2 °F 30.2 in North 6.5 mph 15 mph 49.2% 0 in 100 W/m2
12:19 40.6 °F 23.4 °F 30.2 in NNE 6.3 mph 15 mph 49.8% 0 in 125 W/m2
12:24 40.8 °F 23.5 °F 30.2 in North 5.6 mph 15 mph 49.8% 0 in 140 W/m2
12:29 41 °F 23.4 °F 30.2 in NNE 4.8 mph 12.5 mph 49% 0 in 145 W/m2
12:34 41 °F 23.2 °F 30.2 in NNW 6.7 mph 15 mph 48.8% 0 in 154 W/m2
12:39 40.8 °F 22.6 °F 30.2 in NNW 6 mph 17.4 mph 48% 0 in 164 W/m2
12:44 40.6 °F 22.5 °F 30.2 in North 6 mph 12.5 mph 48% 0 in 173 W/m2
12:49 40.5 °F 21.7 °F 30.2 in North 7 mph 15 mph 47% 0 in 184 W/m2
12:54 40.5 °F 22.3 °F 30.2 in NNE 4.2 mph 12.5 mph 48% 0 in 195 W/m2
12:59 40.5 °F 22.6 °F 30.2 in NNE 6.3 mph 10.1 mph 48.6% 0 in 206 W/m2
13:04 40.5 °F 22.5 °F 30.2 in North 3.8 mph 12.5 mph 48.6% 0 in 217 W/m2
13:09 40.5 °F 22.5 °F 30.2 in North 6.5 mph 12.5 mph 48.6% 0 in 226 W/m2
13:14 40.3 °F 22.1 °F 30.2 in North 5.8 mph 12.5 mph 48% 0 in 235 W/m2
13:19 40.3 °F 22.5 °F 30.2 in North 5 mph 12.5 mph 48.7% 0 in 244 W/m2
13:24 40.3 °F 22.5 °F 30.2 in NNW 6.9 mph 15 mph 49% 0 in 252 W/m2
13:29 39.9 °F 22.1 °F 30.2 in North 7.7 mph 15 mph 48.6% 0 in 260 W/m2
13:34 39.9 °F 21.7 °F 30.2 in NNW 7.8 mph 17.4 mph 48% 0 in 267 W/m2
13:39 39.9 °F 21.7 °F 30.2 in North 7.1 mph 15 mph 48.1% 0 in 271 W/m2
13:44 39.9 °F 21.7 °F 30.2 in North 7.5 mph 20.1 mph 48% 0 in 276 W/m2
13:49 39.9 °F 21.7 °F 30.1 in NNW 7.5 mph 20.1 mph 48% 0 in 279 W/m2
13:54 40.1 °F 21.9 °F 30.2 in North 5.3 mph 15 mph 48% 0 in 283 W/m2
13:59 40.1 °F 21.9 °F 30.2 in North 5.9 mph 12.5 mph 48% 0 in 283 W/m2
14:04 40.1 °F 21.9 °F 30.2 in NNW 6.2 mph 12.5 mph 47.8% 0 in 285 W/m2
14:09 40.3 °F 21.7 °F 30.2 in North 4.2 mph 12.5 mph 47.2% 0 in 285 W/m2
14:14 40.3 °F 21.9 °F 30.2 in North 6.4 mph 15 mph 47.4% 0 in 286 W/m2
14:19 40.3 °F 22.1 °F 30.2 in NNE 4.5 mph 12.5 mph 48% 0 in 283 W/m2
14:24 40.3 °F 22.1 °F 30.2 in NNW 6 mph 12.5 mph 48% 0 in 281 W/m2
14:29 40.1 °F 21.9 °F 30.2 in North 4.9 mph 12.5 mph 47.9% 0 in 277 W/m2
14:34 40.1 °F 21.6 °F 30.2 in North 4.6 mph 12.5 mph 47% 0 in 276 W/m2
14:39 40.3 °F 21.2 °F 30.2 in NNE 4.6 mph 12.5 mph 46% 0 in 244 W/m2
14:44 40.5 °F 21 °F 30.2 in North 6.3 mph 12.5 mph 45.3% 0 in 269 W/m2
14:49 40.8 °F 21.2 °F 30.2 in North 4.7 mph 12.5 mph 45% 0 in 265 W/m2
14:54 40.8 °F 21.2 °F 30.2 in NNW 4.3 mph 10.1 mph 45% 0 in 264 W/m2
14:59 40.6 °F 21 °F 30.1 in North 4.8 mph 15 mph 45% 0 in 261 W/m2
15:04 40.6 °F 21 °F 30.1 in North 3.7 mph 10.1 mph 45% 0 in 257 W/m2
15:09 40.5 °F 20.8 °F 30.1 in NE 4.5 mph 15 mph 45% 0 in 252 W/m2
15:14 40.5 °F 20.3 °F 30.2 in NNW 4.1 mph 15 mph 44.1% 0 in 247 W/m2
15:19 40.5 °F 20.3 °F 30.2 in NNE 3.1 mph 15 mph 44% 0 in 241 W/m2
15:24 40.5 °F 20.3 °F 30.2 in NNE 3.9 mph 10.1 mph 44% 0 in 236 W/m2
15:29 40.5 °F 20.3 °F 30.2 in North 4.6 mph 12.5 mph 44% 0 in 230 W/m2
15:34 40.5 °F 20.3 °F 30.2 in North 6.5 mph 12.5 mph 44% 0 in 224 W/m2
15:39 40.5 °F 20.5 °F 30.2 in NNE 3.9 mph 12.5 mph 44.3% 0 in 216 W/m2
15:44 40.3 °F 20.7 °F 30.2 in NW 5 mph 10.1 mph 45% 0 in 210 W/m2
15:49 39.7 °F 20.1 °F 30.2 in NNW 5.5 mph 12.5 mph 45% 0 in 195 W/m2
15:54 39.6 °F 20.3 °F 30.2 in North 5.5 mph 12.5 mph 45.7% 0 in 153 W/m2
15:59 39.6 °F 20.5 °F 30.2 in North 2.2 mph 10.1 mph 46% 0 in 37 W/m2
16:04 39.4 °F 20.3 °F 30.2 in NNW 3 mph 10.1 mph 46% 0 in 35 W/m2
16:09 38.8 °F 19.8 °F 30.2 in North 2.8 mph 7.6 mph 46% 0 in 34 W/m2
16:14 38.8 °F 19.8 °F 30.2 in NW 1.2 mph 7.6 mph 46% 0 in 31 W/m2
16:19 38.8 °F 19.8 °F 30.2 in NNW 1.7 mph 7.6 mph 46% 0 in 29 W/m2
16:24 38.8 °F 19.8 °F 30.2 in NNW 1.3 mph 7.6 mph 46% 0 in 28 W/m2
16:29 38.3 °F 19.4 °F 30.2 in Calm   2.5 mph 46% 0 in 26 W/m2
16:34 38.3 °F 19 °F 30.2 in NNW 0.5 mph 4.9 mph 45.2% 0 in 24 W/m2
16:39 38.3 °F 18.9 °F 30.2 in Calm   2.5 mph 45% 0 in 21 W/m2
16:44 38.1 °F 18.9 °F 30.2 in WSW 0.7 mph 4.9 mph 45% 0 in 20 W/m2
16:49 37.4 °F 18.5 °F 30.2 in Calm     46% 0 in 18 W/m2
16:54 37.2 °F 18.1 °F 30.2 in Calm     45.8% 0 in 14 W/m2
16:59 37.2 °F 17.6 °F 30.2 in North 0.1 mph 2.5 mph 44.8% 0 in 11 W/m2
17:04 37.2 °F 16.7 °F 30.2 in Calm   2.5 mph 43% 0 in 8 W/m2
17:09 37.4 °F 16.9 °F 30.2 in Calm     43% 0 in 6 W/m2
17:14 37.2 °F 16.7 °F 30.2 in NNW 0.5 mph 4.9 mph 43% 0 in 4 W/m2
17:19 37.2 °F 16.3 °F 30.2 in NNW 2.1 mph 4.9 mph 42.3% 0 in 0 W/m2
17:24 37.4 °F 16.3 °F 30.2 in North 1.7 mph 7.6 mph 42% 0 in 0 W/m2
17:29 37.8 °F 16.7 °F 30.2 in NNE 0.6 mph 7.6 mph 42% 0 in 0 W/m2
17:34 37.8 °F 16.7 °F 30.2 in NW 0.2 mph 4.9 mph 42% 0 in 0 W/m2
17:39 37.8 °F 17.2 °F 30.2 in NW 3 mph 10.1 mph 43% 0 in 0 W/m2
17:44 37.8 °F 17.2 °F 30.2 in NNW 4.3 mph 10.1 mph 43% 0 in 0 W/m2
17:49 37.9 °F 17.4 °F 30.2 in NW 3.4 mph 12.5 mph 43% 0 in 0 W/m2
17:54 37.9 °F 17.4 °F 30.2 in NNW 3.1 mph 12.5 mph 43% 0 in 0 W/m2
17:59 37.9 °F 17.2 °F 30.2 in NNW 1.9 mph 10.1 mph 42.9% 0 in 0 W/m2
18:04 37.8 °F 17.1 °F 30.2 in North 2.9 mph 10.1 mph 42.9% 0 in 0 W/m2
18:09 37.9 °F 16.9 °F 30.2 in NNW 2.4 mph 10.1 mph 42% 0 in 0 W/m2
18:14 37.9 °F 16.9 °F 30.2 in NNW 1.7 mph 7.6 mph 42% 0 in 0 W/m2
18:19 37.9 °F 16.3 °F 30.2 in NNW 4.6 mph 10.1 mph 41.2% 0 in 0 W/m2
18:24 37.9 °F 16 °F 30.2 in NNW 4.7 mph 15 mph 40.3% 0 in 0 W/m2
18:29 37.8 °F 16.2 °F 30.2 in North 2.2 mph 10.1 mph 41% 0 in 0 W/m2
18:34 37.8 °F 16.2 °F 30.2 in North 1.2 mph 4.9 mph 41% 0 in 0 W/m2
18:39 37.8 °F 16.2 °F 30.2 in NNW 3.2 mph 15 mph 41% 0 in 0 W/m2
18:44 37.8 °F 15.6 °F 30.2 in NNW 3.7 mph 15 mph 40% 0 in 0 W/m2
18:49 38.1 °F 15.8 °F 30.2 in NNW 4.3 mph 12.5 mph 39.8% 0 in 0 W/m2
18:54 38.1 °F 15.8 °F 30.2 in NNW 3.7 mph 12.5 mph 39.8% 0 in 0 W/m2
18:59 37.9 °F 15.4 °F 30.2 in North 3.7 mph 12.5 mph 39.2% 0 in 0 W/m2
19:04 38.1 °F 15.3 °F 30.2 in NNW 4.1 mph 12.5 mph 39% 0 in 0 W/m2
19:09 37.9 °F 15.3 °F 30.2 in NNW 3.8 mph 12.5 mph 39% 0 in 0 W/m2
19:14 37.9 °F 14.9 °F 30.2 in NNW 4.8 mph 12.5 mph 38.6% 0 in 0 W/m2
19:19 37.9 °F 14.5 °F 30.2 in North 3.9 mph 12.5 mph 38% 0 in 0 W/m2
19:24 38.1 °F 14.7 °F 30.2 in NNW 4.7 mph 17.4 mph 38% 0 in 0 W/m2
19:29 38.5 °F 14.5 °F 30.2 in NNW 5.1 mph 17.4 mph 37.3% 0 in 0 W/m2
19:34 38.7 °F 14.5 °F 30.2 in NNW 4.2 mph 10.1 mph 37% 0 in 0 W/m2
19:39 38.7 °F 14.9 °F 30.2 in NNW 2.5 mph 7.6 mph 37.6% 0 in 0 W/m2
19:44 38.5 °F 15.1 °F 30.2 in NNW 0.7 mph 7.6 mph 38% 0 in 0 W/m2
19:49 38.3 °F 14.7 °F 30.2 in NNW 2.8 mph 7.6 mph 37.6% 0 in 0 W/m2
19:54 38.1 °F 14.7 °F 30.2 in NNW 1.6 mph 10.1 mph 37.9% 0 in 0 W/m2
19:59 38.1 °F 14.5 °F 30.2 in NNW 2.7 mph 10.1 mph 37.8% 0 in 0 W/m2
20:04 38.1 °F 14.4 °F 30.2 in WNW 0.2 mph 7.6 mph 37.5% 0 in 0 W/m2
20:09 37.9 °F 14.4 °F 30.2 in NNW 3.2 mph 12.5 mph 37.3% 0 in 0 W/m2
20:14 37.9 °F 13.8 °F 30.2 in WNW 2 mph 7.6 mph 36.8% 0 in 0 W/m2
20:19 37.9 °F 13.6 °F 30.2 in NNW 0.6 mph 7.6 mph 36.6% 0 in 0 W/m2
20:24 37.9 °F 14.2 °F 30.2 in NNW 0.6 mph 7.6 mph 37.3% 0 in 0 W/m2
20:29 37.4 °F 13.5 °F 30.2 in Calm   7.6 mph 37% 0 in 0 W/m2
20:34 37 °F 13.1 °F 30.2 in NNW 2.1 mph 10.1 mph 36.8% 0 in 0 W/m2
20:39 37.2 °F 12.7 °F 30.2 in North 1.2 mph 10.1 mph 36% 0 in 0 W/m2
20:44 37.2 °F 13.3 °F 30.2 in NNE 0.1 mph 2.5 mph 37% 0 in 0 W/m2
20:49 36.7 °F 13.6 °F 30.2 in Calm     38.4% 0 in 0 W/m2
20:54 36.1 °F 14 °F 30.2 in Calm     39.7% 0 in 0 W/m2
20:59 36 °F 14 °F 30.2 in Calm     40.2% 0 in 0 W/m2
21:04 35.8 °F 14.4 °F 30.2 in Calm     41% 0 in 0 W/m2
21:09 35.2 °F 13.8 °F 30.2 in Calm     41% 0 in 0 W/m2
21:14 34.7 °F 13.8 °F 30.2 in Calm     41.6% 0 in 0 W/m2
21:19 34.7 °F 14.4 °F 30.2 in Calm     42.7% 0 in 0 W/m2
21:24 34.5 °F 14.4 °F 30.3 in Calm     43% 0 in 0 W/m2
21:29 34.3 °F 14 °F 30.2 in Calm     42.7% 0 in 0 W/m2
21:34 34.5 °F 13.8 °F 30.2 in Calm     42% 0 in 0 W/m2
21:39 34.5 °F 13.8 °F 30.2 in Calm     42% 0 in 0 W/m2
21:44 34.3 °F 13.8 °F 30.2 in Calm     42.1% 0 in 0 W/m2
21:49 34.3 °F 13.8 °F 30.3 in West 0.1 mph 2.5 mph 42.4% 0 in 0 W/m2
21:54 34.2 °F 13.5 °F 30.3 in Calm   2.5 mph 42% 0 in 0 W/m2
21:59 34.2 °F 13.5 °F 30.3 in Calm   2.5 mph 42% 0 in 0 W/m2
22:04 34.2 °F 13.3 °F 30.3 in WSW 0.1 mph 2.5 mph 41.8% 0 in 0 W/m2
22:09 34.2 °F 13.5 °F 30.3 in Calm   2.5 mph 41.8% 0 in 0 W/m2
22:14 34.3 °F 12.9 °F 30.3 in Calm   2.5 mph 40.7% 0 in 0 W/m2
22:19 34.5 °F 12.7 °F 30.3 in Calm     40% 0 in 0 W/m2
22:24 34.5 °F 12.2 °F 30.3 in NW 0.7 mph 4.9 mph 39% 0 in 0 W/m2
22:29 35.1 °F 12 °F 30.3 in Calm   4.9 mph 38.1% 0 in 0 W/m2
22:34 35.2 °F 12.7 °F 30.3 in Calm     39% 0 in 0 W/m2
22:39 35.2 °F 12.4 °F 30.3 in Calm   2.5 mph 38.4% 0 in 0 W/m2
22:44 35.2 °F 12.2 °F 30.3 in NNW 0.3 mph 4.9 mph 38% 0 in 0 W/m2
22:49 35.2 °F 12.2 °F 30.3 in NW 0.2 mph 4.9 mph 38% 0 in 0 W/m2
22:54 35.4 °F 12.4 °F 30.3 in WNW 0.1 mph 2.5 mph 38% 0 in 0 W/m2
22:59 35.2 °F 12.2 °F 30.3 in WNW 0.1 mph 2.5 mph 38% 0 in 0 W/m2
23:04 35.2 °F 12.2 °F 30.3 in WNW 0.2 mph 2.5 mph 38% 0 in 0 W/m2
23:09 35.1 °F 12 °F 30.3 in Calm     38% 0 in 0 W/m2
23:14 34.7 °F 11.5 °F 30.3 in Calm   4.9 mph 37.8% 0 in 0 W/m2
23:19 34.7 °F 11.3 °F 30.3 in Calm     37.3% 0 in 0 W/m2
23:24 34.7 °F 11.1 °F 30.3 in Calm     37.1% 0 in 0 W/m2
23:29 35.2 °F 10.4 °F 30.3 in Calm     35.1% 0 in 0 W/m2
23:34 35.8 °F 10.8 °F 30.3 in Calm     34.9% 0 in 0 W/m2
23:39 35.8 °F 11.5 °F 30.3 in Calm     36% 0 in 0 W/m2
23:44 35.4 °F 11.1 °F 30.3 in Calm     36% 0 in 0 W/m2
23:49 35.4 °F 10.6 °F 30.3 in Calm     35.2% 0 in 0 W/m2
23:54 35.2 °F 10.4 °F 30.3 in Calm     35% 0 in 0 W/m2
23:59 35.2 °F 9.9 °F 30.3 in Calm     34.2% 0 in 0 W/m2
Juneau County Weather
Compliments of Weather Underground - 2 mb